sensor_id;sensor_type;location;lat;lon;timestamp;temperature;humidity
573;DHT22;271;51.114;13.780;2023-02-01T00:00:28;4.70;1.00
573;DHT22;271;51.114;13.780;2023-02-01T00:03:16;4.70;1.00
573;DHT22;271;51.114;13.780;2023-02-01T00:06:05;4.60;1.00
573;DHT22;271;51.114;13.780;2023-02-01T00:08:52;4.60;1.00
573;DHT22;271;51.114;13.780;2023-02-01T00:11:42;4.70;1.00
573;DHT22;271;51.114;13.780;2023-02-01T00:14:30;4.70;1.00
573;DHT22;271;51.114;13.780;2023-02-01T00:17:24;4.70;1.00
573;DHT22;271;51.114;13.780;2023-02-01T00:20:12;4.60;1.00
573;DHT22;271;51.114;13.780;2023-02-01T00:23:00;4.60;1.00
573;DHT22;271;51.114;13.780;2023-02-01T00:25:47;4.70;1.00
573;DHT22;271;51.114;13.780;2023-02-01T00:28:36;4.70;1.00
573;DHT22;271;51.114;13.780;2023-02-01T00:31:24;4.70;1.00
573;DHT22;271;51.114;13.780;2023-02-01T00:34:13;4.70;1.00
573;DHT22;271;51.114;13.780;2023-02-01T00:37:01;4.70;1.00
573;DHT22;271;51.114;13.780;2023-02-01T00:39:49;4.80;1.00
573;DHT22;271;51.114;13.780;2023-02-01T00:42:37;4.80;1.00
573;DHT22;271;51.114;13.780;2023-02-01T00:45:26;4.80;1.00
573;DHT22;271;51.114;13.780;2023-02-01T00:48:13;4.90;1.00
573;DHT22;271;51.114;13.780;2023-02-01T00:51:02;4.80;1.00
573;DHT22;271;51.114;13.780;2023-02-01T00:53:51;4.90;1.00
573;DHT22;271;51.114;13.780;2023-02-01T00:56:38;4.90;1.00
573;DHT22;271;51.114;13.780;2023-02-01T00:59:26;4.90;1.00
573;DHT22;271;51.114;13.780;2023-02-01T01:02:15;4.90;1.00
573;DHT22;271;51.114;13.780;2023-02-01T01:05:03;4.90;1.00
573;DHT22;271;51.114;13.780;2023-02-01T01:07:51;4.80;1.00
573;DHT22;271;51.114;13.780;2023-02-01T01:10:39;4.80;1.00
573;DHT22;271;51.114;13.780;2023-02-01T01:13:27;4.80;1.00
573;DHT22;271;51.114;13.780;2023-02-01T01:16:15;4.80;1.00
573;DHT22;271;51.114;13.780;2023-02-01T01:19:04;4.70;1.00
573;DHT22;271;51.114;13.780;2023-02-01T01:21:52;4.60;1.00
573;DHT22;271;51.114;13.780;2023-02-01T01:24:40;4.70;1.00
573;DHT22;271;51.114;13.780;2023-02-01T01:27:28;4.70;1.00
573;DHT22;271;51.114;13.780;2023-02-01T01:30:16;4.70;1.00
573;DHT22;271;51.114;13.780;2023-02-01T01:33:04;4.70;1.00
573;DHT22;271;51.114;13.780;2023-02-01T01:35:53;4.70;1.00
573;DHT22;271;51.114;13.780;2023-02-01T01:38:42;4.70;1.00
573;DHT22;271;51.114;13.780;2023-02-01T01:41:31;4.70;1.00
573;DHT22;271;51.114;13.780;2023-02-01T01:44:57;4.80;1.00
573;DHT22;271;51.114;13.780;2023-02-01T01:47:48;4.80;1.00
573;DHT22;271;51.114;13.780;2023-02-01T01:50:40;4.90;1.00
573;DHT22;271;51.114;13.780;2023-02-01T01:53:34;4.90;1.00
573;DHT22;271;51.114;13.780;2023-02-01T01:56:23;4.90;1.00
573;DHT22;271;51.114;13.780;2023-02-01T01:59:11;4.90;1.00
573;DHT22;271;51.114;13.780;2023-02-01T02:02:00;4.90;1.00
573;DHT22;271;51.114;13.780;2023-02-01T02:04:47;4.90;1.00
573;DHT22;271;51.114;13.780;2023-02-01T02:07:39;4.90;1.00
573;DHT22;271;51.114;13.780;2023-02-01T02:10:29;4.90;1.00
573;DHT22;271;51.114;13.780;2023-02-01T02:13:32;5.00;1.00
573;DHT22;271;51.114;13.780;2023-02-01T02:16:39;4.90;1.00
573;DHT22;271;51.114;13.780;2023-02-01T02:19:49;4.90;1.00
573;DHT22;271;51.114;13.780;2023-02-01T02:26:23;4.90;1.00
573;DHT22;271;51.114;13.780;2023-02-01T02:36:09;5.00;1.00
573;DHT22;271;51.114;13.780;2023-02-01T02:39:04;4.90;1.00
573;DHT22;271;51.114;13.780;2023-02-01T02:41:59;4.90;1.00
573;DHT22;271;51.114;13.780;2023-02-01T02:45:08;4.90;1.00
573;DHT22;271;51.114;13.780;2023-02-01T02:48:19;4.80;1.00
573;DHT22;271;51.114;13.780;2023-02-01T02:51:12;4.80;1.00
573;DHT22;271;51.114;13.780;2023-02-01T02:54:23;4.80;1.00
573;DHT22;271;51.114;13.780;2023-02-01T02:57:34;4.80;1.00
573;DHT22;271;51.114;13.780;2023-02-01T03:00:40;4.70;1.00
573;DHT22;271;51.114;13.780;2023-02-01T03:03:47;4.80;1.00
573;DHT22;271;51.114;13.780;2023-02-01T03:06:56;4.80;1.00
573;DHT22;271;51.114;13.780;2023-02-01T03:09:46;4.70;1.00
573;DHT22;271;51.114;13.780;2023-02-01T03:12:37;4.80;1.00
573;DHT22;271;51.114;13.780;2023-02-01T03:15:47;4.70;1.00
573;DHT22;271;51.114;13.780;2023-02-01T03:18:44;4.80;1.00
573;DHT22;271;51.114;13.780;2023-02-01T03:21:36;4.80;1.00
573;DHT22;271;51.114;13.780;2023-02-01T03:24:30;4.70;1.00
573;DHT22;271;51.114;13.780;2023-02-01T03:27:22;4.70;1.00
573;DHT22;271;51.114;13.780;2023-02-01T03:30:16;4.70;1.00
573;DHT22;271;51.114;13.780;2023-02-01T03:33:09;4.80;1.00
573;DHT22;271;51.114;13.780;2023-02-01T03:36:11;4.80;1.00
573;DHT22;271;51.114;13.780;2023-02-01T03:39:03;4.70;1.00
573;DHT22;271;51.114;13.780;2023-02-01T03:41:56;4.70;1.00
573;DHT22;271;51.114;13.780;2023-02-01T03:44:49;4.80;1.00
573;DHT22;271;51.114;13.780;2023-02-01T03:47:41;4.80;1.00
573;DHT22;271;51.114;13.780;2023-02-01T03:50:31;4.80;1.00
573;DHT22;271;51.114;13.780;2023-02-01T03:53:22;4.80;1.00
573;DHT22;271;51.114;13.780;2023-02-01T03:56:10;4.90;1.00
573;DHT22;271;51.114;13.780;2023-02-01T03:59:00;4.90;1.00
573;DHT22;271;51.114;13.780;2023-02-01T04:01:48;4.90;1.00
573;DHT22;271;51.114;13.780;2023-02-01T04:04:35;4.80;1.00
573;DHT22;271;51.114;13.780;2023-02-01T04:07:23;4.90;1.00
573;DHT22;271;51.114;13.780;2023-02-01T04:10:11;4.90;1.00
573;DHT22;271;51.114;13.780;2023-02-01T04:12:59;4.90;1.00
573;DHT22;271;51.114;13.780;2023-02-01T04:15:48;4.90;1.00
573;DHT22;271;51.114;13.780;2023-02-01T04:18:37;4.90;1.00
573;DHT22;271;51.114;13.780;2023-02-01T04:21:24;4.90;1.00
573;DHT22;271;51.114;13.780;2023-02-01T04:24:12;4.90;1.00
573;DHT22;271;51.114;13.780;2023-02-01T04:27:00;4.90;1.00
573;DHT22;271;51.114;13.780;2023-02-01T04:29:49;4.90;1.00
573;DHT22;271;51.114;13.780;2023-02-01T04:32:38;4.90;1.00
573;DHT22;271;51.114;13.780;2023-02-01T04:35:25;4.80;1.00
573;DHT22;271;51.114;13.780;2023-02-01T04:38:13;4.90;1.00
573;DHT22;271;51.114;13.780;2023-02-01T04:41:01;4.80;1.00
573;DHT22;271;51.114;13.780;2023-02-01T04:43:50;4.80;1.00
573;DHT22;271;51.114;13.780;2023-02-01T04:46:38;4.70;1.00
573;DHT22;271;51.114;13.780;2023-02-01T04:49:27;4.80;1.00
573;DHT22;271;51.114;13.780;2023-02-01T04:52:15;4.80;1.00
573;DHT22;271;51.114;13.780;2023-02-01T04:55:03;4.80;1.00
573;DHT22;271;51.114;13.780;2023-02-01T04:57:51;4.80;1.00
573;DHT22;271;51.114;13.780;2023-02-01T05:00:39;4.80;1.00
573;DHT22;271;51.114;13.780;2023-02-01T05:03:26;4.80;1.00
573;DHT22;271;51.114;13.780;2023-02-01T05:06:15;4.80;1.00
573;DHT22;271;51.114;13.780;2023-02-01T05:09:03;4.90;1.00
573;DHT22;271;51.114;13.780;2023-02-01T05:11:51;4.90;1.00
573;DHT22;271;51.114;13.780;2023-02-01T05:14:57;4.90;1.00
573;DHT22;271;51.114;13.780;2023-02-01T05:17:44;5.00;1.00
573;DHT22;271;51.114;13.780;2023-02-01T05:20:32;4.90;1.00
573;DHT22;271;51.114;13.780;2023-02-01T05:23:21;4.80;1.00
573;DHT22;271;51.114;13.780;2023-02-01T05:26:09;4.90;1.00
573;DHT22;271;51.114;13.780;2023-02-01T05:28:57;4.80;1.00
573;DHT22;271;51.114;13.780;2023-02-01T05:31:45;4.90;1.00
573;DHT22;271;51.114;13.780;2023-02-01T05:34:33;4.90;1.00
573;DHT22;271;51.114;13.780;2023-02-01T05:37:21;4.90;1.00
573;DHT22;271;51.114;13.780;2023-02-01T05:40:11;4.90;1.00
573;DHT22;271;51.114;13.780;2023-02-01T05:42:59;5.00;1.00
573;DHT22;271;51.114;13.780;2023-02-01T05:45:46;4.90;1.00
573;DHT22;271;51.114;13.780;2023-02-01T05:48:34;4.90;1.00
573;DHT22;271;51.114;13.780;2023-02-01T05:51:22;4.90;1.00
573;DHT22;271;51.114;13.780;2023-02-01T05:54:09;4.90;1.00
573;DHT22;271;51.114;13.780;2023-02-01T05:56:58;4.90;1.00
573;DHT22;271;51.114;13.780;2023-02-01T05:59:46;4.90;1.00
573;DHT22;271;51.114;13.780;2023-02-01T06:02:34;4.90;1.00
573;DHT22;271;51.114;13.780;2023-02-01T06:05:22;5.00;1.00
573;DHT22;271;51.114;13.780;2023-02-01T06:08:10;4.90;1.00
573;DHT22;271;51.114;13.780;2023-02-01T06:10:59;4.90;1.00
573;DHT22;271;51.114;13.780;2023-02-01T06:13:48;4.90;1.00
573;DHT22;271;51.114;13.780;2023-02-01T06:16:36;4.80;1.00
573;DHT22;271;51.114;13.780;2023-02-01T06:19:24;4.80;1.00
573;DHT22;271;51.114;13.780;2023-02-01T06:22:12;4.80;1.00
573;DHT22;271;51.114;13.780;2023-02-01T06:25:00;4.90;1.00
573;DHT22;271;51.114;13.780;2023-02-01T06:27:47;5.00;1.00
573;DHT22;271;51.114;13.780;2023-02-01T06:30:36;4.90;1.00
573;DHT22;271;51.114;13.780;2023-02-01T06:33:27;4.90;1.00
573;DHT22;271;51.114;13.780;2023-02-01T06:36:14;4.90;1.00
573;DHT22;271;51.114;13.780;2023-02-01T06:39:02;5.00;1.00
573;DHT22;271;51.114;13.780;2023-02-01T06:41:52;4.90;1.00
573;DHT22;271;51.114;13.780;2023-02-01T06:44:40;4.90;1.00
573;DHT22;271;51.114;13.780;2023-02-01T06:47:29;4.90;1.00
573;DHT22;271;51.114;13.780;2023-02-01T06:50:17;4.90;1.00
573;DHT22;271;51.114;13.780;2023-02-01T06:53:05;5.00;1.00
573;DHT22;271;51.114;13.780;2023-02-01T06:55:53;5.00;1.00
573;DHT22;271;51.114;13.780;2023-02-01T06:58:41;5.00;1.00
573;DHT22;271;51.114;13.780;2023-02-01T07:01:28;5.10;1.00
573;DHT22;271;51.114;13.780;2023-02-01T07:04:17;5.00;1.00
573;DHT22;271;51.114;13.780;2023-02-01T07:07:05;5.00;1.00
573;DHT22;271;51.114;13.780;2023-02-01T07:09:53;5.00;1.00
573;DHT22;271;51.114;13.780;2023-02-01T07:12:40;5.00;1.00
573;DHT22;271;51.114;13.780;2023-02-01T07:15:28;4.90;1.00
573;DHT22;271;51.114;13.780;2023-02-01T07:18:16;5.00;1.00
573;DHT22;271;51.114;13.780;2023-02-01T07:21:05;4.90;1.00
573;DHT22;271;51.114;13.780;2023-02-01T07:23:53;4.80;1.00
573;DHT22;271;51.114;13.780;2023-02-01T07:26:40;4.80;1.00
573;DHT22;271;51.114;13.780;2023-02-01T07:29:28;4.90;1.00
573;DHT22;271;51.114;13.780;2023-02-01T07:32:16;4.80;1.00
573;DHT22;271;51.114;13.780;2023-02-01T07:35:05;4.70;1.00
573;DHT22;271;51.114;13.780;2023-02-01T07:37:54;4.50;1.00
573;DHT22;271;51.114;13.780;2023-02-01T07:40:41;4.40;1.00
573;DHT22;271;51.114;13.780;2023-02-01T07:43:29;4.40;1.00
573;DHT22;271;51.114;13.780;2023-02-01T07:46:17;4.40;1.00
573;DHT22;271;51.114;13.780;2023-02-01T07:49:05;4.30;1.00
573;DHT22;271;51.114;13.780;2023-02-01T07:51:53;4.40;1.00
573;DHT22;271;51.114;13.780;2023-02-01T07:54:42;4.40;1.00
573;DHT22;271;51.114;13.780;2023-02-01T07:57:30;4.50;1.00
573;DHT22;271;51.114;13.780;2023-02-01T08:00:19;4.40;1.00
573;DHT22;271;51.114;13.780;2023-02-01T08:03:24;4.50;1.00
573;DHT22;271;51.114;13.780;2023-02-01T08:06:12;4.50;1.00
573;DHT22;271;51.114;13.780;2023-02-01T08:09:00;4.50;1.00
573;DHT22;271;51.114;13.780;2023-02-01T08:11:49;4.40;1.00
573;DHT22;271;51.114;13.780;2023-02-01T08:14:37;4.50;1.00
573;DHT22;271;51.114;13.780;2023-02-01T08:17:27;4.50;1.00
573;DHT22;271;51.114;13.780;2023-02-01T08:20:15;4.50;1.00
573;DHT22;271;51.114;13.780;2023-02-01T08:23:03;4.50;1.00
573;DHT22;271;51.114;13.780;2023-02-01T08:25:55;4.50;1.00
573;DHT22;271;51.114;13.780;2023-02-01T08:28:54;4.40;1.00
573;DHT22;271;51.114;13.780;2023-02-01T08:31:42;4.40;1.00
573;DHT22;271;51.114;13.780;2023-02-01T08:34:29;4.40;1.00
573;DHT22;271;51.114;13.780;2023-02-01T08:37:17;4.30;1.00
573;DHT22;271;51.114;13.780;2023-02-01T08:40:06;4.30;1.00
573;DHT22;271;51.114;13.780;2023-02-01T08:42:55;4.30;1.00
573;DHT22;271;51.114;13.780;2023-02-01T08:45:44;4.30;1.00
573;DHT22;271;51.114;13.780;2023-02-01T08:48:32;4.30;1.00
573;DHT22;271;51.114;13.780;2023-02-01T08:51:22;4.30;1.00
573;DHT22;271;51.114;13.780;2023-02-01T08:54:10;4.40;1.00
573;DHT22;271;51.114;13.780;2023-02-01T08:56:57;4.50;1.00
573;DHT22;271;51.114;13.780;2023-02-01T08:59:45;4.50;1.00
573;DHT22;271;51.114;13.780;2023-02-01T09:02:35;4.70;1.00
573;DHT22;271;51.114;13.780;2023-02-01T09:05:22;4.90;1.00
573;DHT22;271;51.114;13.780;2023-02-01T09:08:12;5.00;1.00
573;DHT22;271;51.114;13.780;2023-02-01T09:11:02;5.20;1.00
573;DHT22;271;51.114;13.780;2023-02-01T09:13:50;5.20;1.00
573;DHT22;271;51.114;13.780;2023-02-01T09:16:38;5.20;1.00
573;DHT22;271;51.114;13.780;2023-02-01T09:19:27;5.30;1.00
573;DHT22;271;51.114;13.780;2023-02-01T09:22:15;5.30;1.00
573;DHT22;271;51.114;13.780;2023-02-01T09:25:03;5.40;1.00
573;DHT22;271;51.114;13.780;2023-02-01T09:27:51;5.30;1.00
573;DHT22;271;51.114;13.780;2023-02-01T09:30:38;5.30;1.00
573;DHT22;271;51.114;13.780;2023-02-01T09:33:27;5.30;1.00
573;DHT22;271;51.114;13.780;2023-02-01T09:36:16;5.30;1.00
573;DHT22;271;51.114;13.780;2023-02-01T09:39:05;5.40;1.00
573;DHT22;271;51.114;13.780;2023-02-01T09:41:59;5.30;1.00
573;DHT22;271;51.114;13.780;2023-02-01T09:45:00;5.40;1.00
573;DHT22;271;51.114;13.780;2023-02-01T09:47:53;5.30;1.00
573;DHT22;271;51.114;13.780;2023-02-01T09:50:44;5.20;1.00
573;DHT22;271;51.114;13.780;2023-02-01T09:53:36;5.00;1.00
573;DHT22;271;51.114;13.780;2023-02-01T09:56:29;4.90;1.00
573;DHT22;271;51.114;13.780;2023-02-01T09:59:28;4.70;1.00
573;DHT22;271;51.114;13.780;2023-02-01T10:02:20;4.50;1.00
573;DHT22;271;51.114;13.780;2023-02-01T10:05:13;4.30;1.00
573;DHT22;271;51.114;13.780;2023-02-01T10:08:07;4.10;1.00
573;DHT22;271;51.114;13.780;2023-02-01T10:11:00;3.80;1.00
573;DHT22;271;51.114;13.780;2023-02-01T10:13:55;3.90;1.00
573;DHT22;271;51.114;13.780;2023-02-01T10:16:51;3.80;1.00
573;DHT22;271;51.114;13.780;2023-02-01T10:19:48;3.80;1.00
573;DHT22;271;51.114;13.780;2023-02-01T10:22:41;3.80;1.00
573;DHT22;271;51.114;13.780;2023-02-01T10:25:35;3.70;1.00
573;DHT22;271;51.114;13.780;2023-02-01T10:28:26;3.70;1.00
573;DHT22;271;51.114;13.780;2023-02-01T10:31:13;3.80;1.00
573;DHT22;271;51.114;13.780;2023-02-01T10:34:10;3.80;1.00
573;DHT22;271;51.114;13.780;2023-02-01T10:37:13;3.80;1.00
573;DHT22;271;51.114;13.780;2023-02-01T10:40:16;3.80;1.00
573;DHT22;271;51.114;13.780;2023-02-01T10:43:04;3.80;1.00
573;DHT22;271;51.114;13.780;2023-02-01T10:45:53;3.90;1.00
573;DHT22;271;51.114;13.780;2023-02-01T10:48:41;3.90;1.00
573;DHT22;271;51.114;13.780;2023-02-01T10:51:35;3.90;1.00
573;DHT22;271;51.114;13.780;2023-02-01T10:54:34;3.90;1.00
573;DHT22;271;51.114;13.780;2023-02-01T10:57:23;3.90;1.00
573;DHT22;271;51.114;13.780;2023-02-01T11:00:19;4.00;1.00
573;DHT22;271;51.114;13.780;2023-02-01T11:03:32;4.10;1.00
573;DHT22;271;51.114;13.780;2023-02-01T11:06:26;4.30;1.00
573;DHT22;271;51.114;13.780;2023-02-01T11:09:19;4.30;1.00
573;DHT22;271;51.114;13.780;2023-02-01T11:12:25;4.50;1.00
573;DHT22;271;51.114;13.780;2023-02-01T11:15:19;4.40;1.00
573;DHT22;271;51.114;13.780;2023-02-01T11:18:16;4.60;1.00
573;DHT22;271;51.114;13.780;2023-02-01T11:21:07;4.70;1.00
573;DHT22;271;51.114;13.780;2023-02-01T11:23:55;4.80;1.00
573;DHT22;271;51.114;13.780;2023-02-01T11:26:48;4.80;1.00
573;DHT22;271;51.114;13.780;2023-02-01T11:29:38;4.80;1.00
573;DHT22;271;51.114;13.780;2023-02-01T11:32:28;4.90;1.00
573;DHT22;271;51.114;13.780;2023-02-01T11:35:20;4.90;1.00
573;DHT22;271;51.114;13.780;2023-02-01T11:38:20;5.00;1.00
573;DHT22;271;51.114;13.780;2023-02-01T11:41:12;5.00;1.00
573;DHT22;271;51.114;13.780;2023-02-01T11:44:01;5.10;1.00
573;DHT22;271;51.114;13.780;2023-02-01T11:47:25;5.00;1.00
573;DHT22;271;51.114;13.780;2023-02-01T11:50:16;5.10;1.00
573;DHT22;271;51.114;13.780;2023-02-01T11:53:22;5.20;1.00
573;DHT22;271;51.114;13.780;2023-02-01T11:56:18;5.10;1.00
573;DHT22;271;51.114;13.780;2023-02-01T11:59:16;5.10;1.00
573;DHT22;271;51.114;13.780;2023-02-01T12:02:26;5.00;1.00
573;DHT22;271;51.114;13.780;2023-02-01T12:05:27;4.90;1.00
573;DHT22;271;51.114;13.780;2023-02-01T12:08:37;4.80;1.00
573;DHT22;271;51.114;13.780;2023-02-01T12:11:36;4.80;1.00
573;DHT22;271;51.114;13.780;2023-02-01T12:14:46;4.80;1.00
573;DHT22;271;51.114;13.780;2023-02-01T12:17:54;4.80;1.00
573;DHT22;271;51.114;13.780;2023-02-01T12:21:03;4.90;1.00
573;DHT22;271;51.114;13.780;2023-02-01T12:24:02;4.90;1.00
573;DHT22;271;51.114;13.780;2023-02-01T12:27:04;5.10;1.00
573;DHT22;271;51.114;13.780;2023-02-01T12:30:03;5.10;1.00
573;DHT22;271;51.114;13.780;2023-02-01T12:33:03;5.20;1.00
573;DHT22;271;51.114;13.780;2023-02-01T12:36:07;5.20;1.00
573;DHT22;271;51.114;13.780;2023-02-01T12:39:04;5.30;1.00
573;DHT22;271;51.114;13.780;2023-02-01T12:42:00;5.20;1.00
573;DHT22;271;51.114;13.780;2023-02-01T12:44:50;5.40;1.00
573;DHT22;271;51.114;13.780;2023-02-01T12:47:44;5.50;1.00
573;DHT22;271;51.114;13.780;2023-02-01T12:50:39;5.50;1.00
573;DHT22;271;51.114;13.780;2023-02-01T12:53:41;5.50;1.00
573;DHT22;271;51.114;13.780;2023-02-01T12:56:35;5.50;1.00
573;DHT22;271;51.114;13.780;2023-02-01T12:59:28;5.50;1.00
573;DHT22;271;51.114;13.780;2023-02-01T13:02:24;5.50;1.00
573;DHT22;271;51.114;13.780;2023-02-01T13:05:16;5.50;1.00
573;DHT22;271;51.114;13.780;2023-02-01T13:08:07;5.60;1.00
573;DHT22;271;51.114;13.780;2023-02-01T13:11:00;5.60;1.00
573;DHT22;271;51.114;13.780;2023-02-01T13:13:59;5.60;1.00
573;DHT22;271;51.114;13.780;2023-02-01T13:16:49;5.70;1.00
573;DHT22;271;51.114;13.780;2023-02-01T13:19:43;5.80;1.00
573;DHT22;271;51.114;13.780;2023-02-01T13:22:36;5.80;1.00
573;DHT22;271;51.114;13.780;2023-02-01T13:25:31;5.80;1.00
573;DHT22;271;51.114;13.780;2023-02-01T13:28:26;6.00;1.00
573;DHT22;271;51.114;13.780;2023-02-01T13:31:41;6.00;1.00
573;DHT22;271;51.114;13.780;2023-02-01T13:38:07;6.00;1.00
573;DHT22;271;51.114;13.780;2023-02-01T13:41:08;6.10;1.00
573;DHT22;271;51.114;13.780;2023-02-01T13:44:04;6.10;1.00
573;DHT22;271;51.114;13.780;2023-02-01T13:46:57;6.10;1.00
573;DHT22;271;51.114;13.780;2023-02-01T13:49:45;6.20;1.00
573;DHT22;271;51.114;13.780;2023-02-01T13:52:38;6.10;1.00
573;DHT22;271;51.114;13.780;2023-02-01T13:55:29;6.10;1.00
573;DHT22;271;51.114;13.780;2023-02-01T13:58:19;6.20;1.00
573;DHT22;271;51.114;13.780;2023-02-01T14:01:35;6.10;1.00
573;DHT22;271;51.114;13.780;2023-02-01T14:04:47;6.20;1.00
573;DHT22;271;51.114;13.780;2023-02-01T14:07:35;6.10;1.00
573;DHT22;271;51.114;13.780;2023-02-01T14:10:46;6.10;1.00
573;DHT22;271;51.114;13.780;2023-02-01T14:13:38;6.10;1.00
573;DHT22;271;51.114;13.780;2023-02-01T14:16:26;6.10;1.00
573;DHT22;271;51.114;13.780;2023-02-01T14:19:21;6.10;1.00
573;DHT22;271;51.114;13.780;2023-02-01T14:22:32;6.00;1.00
573;DHT22;271;51.114;13.780;2023-02-01T14:25:21;6.10;1.00
573;DHT22;271;51.114;13.780;2023-02-01T14:28:23;6.10;1.00
573;DHT22;271;51.114;13.780;2023-02-01T14:31:22;6.10;1.00
573;DHT22;271;51.114;13.780;2023-02-01T14:34:16;6.00;1.00
573;DHT22;271;51.114;13.780;2023-02-01T14:37:07;6.10;1.00
573;DHT22;271;51.114;13.780;2023-02-01T14:40:01;6.10;1.00
573;DHT22;271;51.114;13.780;2023-02-01T14:42:53;6.10;1.00
573;DHT22;271;51.114;13.780;2023-02-01T14:45:49;6.10;1.00
573;DHT22;271;51.114;13.780;2023-02-01T14:48:44;6.10;1.00
573;DHT22;271;51.114;13.780;2023-02-01T14:51:33;6.00;1.00
573;DHT22;271;51.114;13.780;2023-02-01T14:54:23;6.10;1.00
573;DHT22;271;51.114;13.780;2023-02-01T14:57:16;6.10;1.00
573;DHT22;271;51.114;13.780;2023-02-01T15:00:14;6.10;1.00
573;DHT22;271;51.114;13.780;2023-02-01T15:03:23;6.10;1.00
573;DHT22;271;51.114;13.780;2023-02-01T15:06:25;6.10;1.00
573;DHT22;271;51.114;13.780;2023-02-01T15:09:16;6.10;1.00
573;DHT22;271;51.114;13.780;2023-02-01T15:12:14;6.00;1.00
573;DHT22;271;51.114;13.780;2023-02-01T15:15:11;6.00;1.00
573;DHT22;271;51.114;13.780;2023-02-01T15:17:59;6.00;1.00
573;DHT22;271;51.114;13.780;2023-02-01T15:20:56;6.00;1.00
573;DHT22;271;51.114;13.780;2023-02-01T15:23:44;5.90;1.00
573;DHT22;271;51.114;13.780;2023-02-01T15:26:34;5.90;1.00
573;DHT22;271;51.114;13.780;2023-02-01T15:29:23;5.80;1.00
573;DHT22;271;51.114;13.780;2023-02-01T15:32:30;5.80;1.00
573;DHT22;271;51.114;13.780;2023-02-01T15:35:40;5.70;1.00
573;DHT22;271;51.114;13.780;2023-02-01T15:38:38;5.60;1.00
573;DHT22;271;51.114;13.780;2023-02-01T15:41:29;5.60;1.00
573;DHT22;271;51.114;13.780;2023-02-01T15:44:29;5.60;1.00
573;DHT22;271;51.114;13.780;2023-02-01T15:47:23;5.60;1.00
573;DHT22;271;51.114;13.780;2023-02-01T15:50:14;5.50;1.00
573;DHT22;271;51.114;13.780;2023-02-01T15:53:03;5.50;1.00
573;DHT22;271;51.114;13.780;2023-02-01T15:55:53;5.60;1.00
573;DHT22;271;51.114;13.780;2023-02-01T15:58:45;5.60;1.00
573;DHT22;271;51.114;13.780;2023-02-01T16:01:37;5.70;1.00
573;DHT22;271;51.114;13.780;2023-02-01T16:04:26;5.70;1.00
573;DHT22;271;51.114;13.780;2023-02-01T16:07:26;5.60;1.00
573;DHT22;271;51.114;13.780;2023-02-01T16:10:25;5.70;1.00
573;DHT22;271;51.114;13.780;2023-02-01T16:13:13;5.70;1.00
573;DHT22;271;51.114;13.780;2023-02-01T16:16:01;5.70;1.00
573;DHT22;271;51.114;13.780;2023-02-01T16:18:50;5.60;1.00
573;DHT22;271;51.114;13.780;2023-02-01T16:21:38;5.60;1.00
573;DHT22;271;51.114;13.780;2023-02-01T16:24:27;5.50;1.00
573;DHT22;271;51.114;13.780;2023-02-01T16:27:14;5.40;1.00
573;DHT22;271;51.114;13.780;2023-02-01T16:30:03;5.30;1.00
573;DHT22;271;51.114;13.780;2023-02-01T16:32:52;5.30;1.00
573;DHT22;271;51.114;13.780;2023-02-01T16:35:41;5.30;1.00
573;DHT22;271;51.114;13.780;2023-02-01T16:38:29;5.30;1.00
573;DHT22;271;51.114;13.780;2023-02-01T16:41:20;5.20;1.00
573;DHT22;271;51.114;13.780;2023-02-01T16:44:07;5.10;1.00
573;DHT22;271;51.114;13.780;2023-02-01T16:46:55;5.10;1.00
573;DHT22;271;51.114;13.780;2023-02-01T16:49:43;4.90;1.00
573;DHT22;271;51.114;13.780;2023-02-01T16:52:31;4.90;1.00
573;DHT22;271;51.114;13.780;2023-02-01T16:55:20;4.70;1.00
573;DHT22;271;51.114;13.780;2023-02-01T16:58:10;4.40;1.00
573;DHT22;271;51.114;13.780;2023-02-01T17:00:57;4.20;1.00
573;DHT22;271;51.114;13.780;2023-02-01T17:03:46;4.10;1.00
573;DHT22;271;51.114;13.780;2023-02-01T17:06:35;3.90;1.00
573;DHT22;271;51.114;13.780;2023-02-01T17:09:24;3.40;1.00
573;DHT22;271;51.114;13.780;2023-02-01T17:12:18;2.90;1.00
573;DHT22;271;51.114;13.780;2023-02-01T17:15:10;2.70;1.00
573;DHT22;271;51.114;13.780;2023-02-01T17:17:58;2.60;1.00
573;DHT22;271;51.114;13.780;2023-02-01T17:20:48;2.70;1.00
573;DHT22;271;51.114;13.780;2023-02-01T17:23:37;2.70;1.00
573;DHT22;271;51.114;13.780;2023-02-01T17:26:25;2.70;1.00
573;DHT22;271;51.114;13.780;2023-02-01T17:29:13;2.90;1.00
573;DHT22;271;51.114;13.780;2023-02-01T17:32:03;2.80;1.00
573;DHT22;271;51.114;13.780;2023-02-01T17:34:51;2.80;1.00
573;DHT22;271;51.114;13.780;2023-02-01T17:37:39;2.90;1.00
573;DHT22;271;51.114;13.780;2023-02-01T17:40:27;2.80;1.00
573;DHT22;271;51.114;13.780;2023-02-01T17:43:20;2.80;1.00
573;DHT22;271;51.114;13.780;2023-02-01T17:46:13;2.70;1.00
573;DHT22;271;51.114;13.780;2023-02-01T17:49:03;2.70;1.00
573;DHT22;271;51.114;13.780;2023-02-01T17:51:51;2.70;1.00
573;DHT22;271;51.114;13.780;2023-02-01T17:54:39;2.70;1.00
573;DHT22;271;51.114;13.780;2023-02-01T17:57:26;2.70;1.00
573;DHT22;271;51.114;13.780;2023-02-01T18:00:15;2.70;1.00
573;DHT22;271;51.114;13.780;2023-02-01T18:03:03;2.60;1.00
573;DHT22;271;51.114;13.780;2023-02-01T18:05:54;2.60;1.00
573;DHT22;271;51.114;13.780;2023-02-01T18:08:42;2.60;1.00
573;DHT22;271;51.114;13.780;2023-02-01T18:11:30;2.70;1.00
573;DHT22;271;51.114;13.780;2023-02-01T18:14:18;2.60;1.00
573;DHT22;271;51.114;13.780;2023-02-01T18:17:07;2.70;1.00
573;DHT22;271;51.114;13.780;2023-02-01T18:19:55;2.70;1.00
573;DHT22;271;51.114;13.780;2023-02-01T18:22:45;2.60;1.00
573;DHT22;271;51.114;13.780;2023-02-01T18:25:34;2.70;1.00
573;DHT22;271;51.114;13.780;2023-02-01T18:28:23;2.70;1.00
573;DHT22;271;51.114;13.780;2023-02-01T18:31:24;2.80;1.00
573;DHT22;271;51.114;13.780;2023-02-01T18:34:12;2.80;1.00
573;DHT22;271;51.114;13.780;2023-02-01T18:37:06;2.80;1.00
573;DHT22;271;51.114;13.780;2023-02-01T18:39:55;2.80;1.00
573;DHT22;271;51.114;13.780;2023-02-01T18:42:43;2.90;1.00
573;DHT22;271;51.114;13.780;2023-02-01T18:45:34;2.90;1.00
573;DHT22;271;51.114;13.780;2023-02-01T18:48:22;2.90;1.00
573;DHT22;271;51.114;13.780;2023-02-01T18:51:11;2.90;1.00
573;DHT22;271;51.114;13.780;2023-02-01T18:53:59;3.00;1.00
573;DHT22;271;51.114;13.780;2023-02-01T18:56:48;3.00;1.00
573;DHT22;271;51.114;13.780;2023-02-01T18:59:36;3.00;1.00
573;DHT22;271;51.114;13.780;2023-02-01T19:02:24;3.00;1.00
573;DHT22;271;51.114;13.780;2023-02-01T19:05:13;3.10;1.00
573;DHT22;271;51.114;13.780;2023-02-01T19:08:01;3.10;1.00
573;DHT22;271;51.114;13.780;2023-02-01T19:10:48;3.10;1.00
573;DHT22;271;51.114;13.780;2023-02-01T19:13:38;3.10;1.00
573;DHT22;271;51.114;13.780;2023-02-01T19:16:26;3.10;1.00
573;DHT22;271;51.114;13.780;2023-02-01T19:19:14;3.10;1.00
573;DHT22;271;51.114;13.780;2023-02-01T19:22:02;3.10;1.00
573;DHT22;271;51.114;13.780;2023-02-01T19:24:50;3.10;1.00
573;DHT22;271;51.114;13.780;2023-02-01T19:27:38;3.00;1.00
573;DHT22;271;51.114;13.780;2023-02-01T19:30:27;3.10;1.00
573;DHT22;271;51.114;13.780;2023-02-01T19:33:15;3.10;1.00
573;DHT22;271;51.114;13.780;2023-02-01T19:36:04;3.10;1.00
573;DHT22;271;51.114;13.780;2023-02-01T19:38:54;3.10;1.00
573;DHT22;271;51.114;13.780;2023-02-01T19:41:42;3.10;1.00
573;DHT22;271;51.114;13.780;2023-02-01T19:44:30;3.10;1.00
573;DHT22;271;51.114;13.780;2023-02-01T19:47:19;3.20;1.00
573;DHT22;271;51.114;13.780;2023-02-01T19:50:09;3.20;1.00
573;DHT22;271;51.114;13.780;2023-02-01T19:52:57;3.20;1.00